createdAt,value
2017-08-11T00:00:50.954Z,85.95
2017-08-11T00:03:18.424Z,85.98
2017-08-11T00:05:45.857Z,86.00
2017-08-11T00:08:13.337Z,86.64
2017-08-11T00:10:40.794Z,86.41
2017-08-11T00:13:08.849Z,86.50
2017-08-11T00:15:36.321Z,86.23
2017-08-11T00:18:03.797Z,86.12
2017-08-11T00:20:31.232Z,86.18
2017-08-11T00:22:58.704Z,86.36
2017-08-11T00:25:26.343Z,87.29
2017-08-11T00:27:56.415Z,87.26
2017-08-11T00:30:23.939Z,86.98
2017-08-11T00:32:51.520Z,87.08
2017-08-11T00:35:19.066Z,87.42
2017-08-11T00:37:46.513Z,87.43
2017-08-11T00:40:13.983Z,87.23
2017-08-11T00:42:41.547Z,87.39
2017-08-11T00:45:09.038Z,87.46
2017-08-11T00:47:36.493Z,87.99
2017-08-11T00:50:03.972Z,88.08
2017-08-11T00:52:31.444Z,88.21
2017-08-11T00:54:58.995Z,89.38
2017-08-11T00:57:26.455Z,89.09
2017-08-11T00:59:53.934Z,88.19
2017-08-11T01:02:21.577Z,88.12
2017-08-11T01:04:49.051Z,88.07
2017-08-11T01:07:16.605Z,87.27
2017-08-11T01:09:44.076Z,86.18
2017-08-11T01:12:11.601Z,86.43
2017-08-11T01:14:39.189Z,86.46
2017-08-11T01:17:06.743Z,87.30
2017-08-11T01:19:34.194Z,86.10
2017-08-11T01:22:01.668Z,86.44
2017-08-11T01:24:29.114Z,85.82
2017-08-11T01:26:56.757Z,85.56
2017-08-11T01:29:24.431Z,86.71
2017-08-11T01:31:51.903Z,85.63
2017-08-11T01:34:19.445Z,86.17
2017-08-11T01:36:46.954Z,85.92
2017-08-11T01:39:14.410Z,86.13
2017-08-11T01:41:41.918Z,86.05
2017-08-11T01:44:09.362Z,86.68
2017-08-11T01:46:36.839Z,87.00
2017-08-11T01:49:04.377Z,87.16
2017-08-11T01:51:31.951Z,87.19
2017-08-11T01:53:59.489Z,87.70
2017-08-11T01:56:26.965Z,86.50
2017-08-11T01:58:54.440Z,87.27
2017-08-11T02:01:21.961Z,86.66
2017-08-11T02:03:49.537Z,86.89
2017-08-11T02:06:17.111Z,87.33
2017-08-11T02:08:44.565Z,89.11
2017-08-11T02:11:12.116Z,89.25
2017-08-11T02:13:39.676Z,90.33
2017-08-11T02:16:07.127Z,90.69
2017-08-11T02:18:34.891Z,90.29
2017-08-11T02:21:02.360Z,90.61
2017-08-11T02:23:29.889Z,89.93
2017-08-11T02:25:57.370Z,89.49
2017-08-11T02:28:24.851Z,88.84
2017-08-11T02:30:52.322Z,88.21
2017-08-11T02:33:19.936Z,88.14
2017-08-11T02:35:47.403Z,88.05
2017-08-11T02:38:14.934Z,87.75
2017-08-11T02:40:42.408Z,86.93
2017-08-11T02:43:09.917Z,86.45
2017-08-11T02:45:37.433Z,86.83
2017-08-11T02:48:04.889Z,86.45
2017-08-11T02:50:32.439Z,87.04
2017-08-11T02:52:59.911Z,87.57
2017-08-11T02:55:27.463Z,87.67
2017-08-11T02:57:55.013Z,87.10
2017-08-11T03:00:22.521Z,86.73
2017-08-11T03:02:49.980Z,87.37
2017-08-11T03:05:17.484Z,87.68
2017-08-11T03:07:45.077Z,87.64
2017-08-11T03:10:12.551Z,87.04
2017-08-11T03:12:39.995Z,87.22
2017-08-11T03:15:07.469Z,87.13
2017-08-11T03:17:34.963Z,86.91
2017-08-11T03:20:02.539Z,87.61
2017-08-11T03:22:30.001Z,87.79
2017-08-11T03:24:57.457Z,88.06
2017-08-11T03:27:24.946Z,89.01
2017-08-11T03:29:52.405Z,88.45
2017-08-11T03:32:19.869Z,88.22
2017-08-11T03:34:47.395Z,87.62
2017-08-11T03:37:14.983Z,87.70
2017-08-11T03:39:42.437Z,87.23
2017-08-11T03:42:09.934Z,87.88
2017-08-11T03:44:37.401Z,87.51
2017-08-11T03:47:04.871Z,87.81
2017-08-11T03:49:32.436Z,87.83
2017-08-11T03:51:59.971Z,88.39
2017-08-11T03:54:27.406Z,88.79
2017-08-11T03:56:54.861Z,90.22
2017-08-11T03:59:22.443Z,90.71
2017-08-11T04:01:49.903Z,90.01
2017-08-11T04:04:17.445Z,90.06
2017-08-11T04:06:44.885Z,89.70
2017-08-11T04:09:12.355Z,89.59
2017-08-11T04:11:39.816Z,88.36
2017-08-11T04:14:07.297Z,88.71
2017-08-11T04:16:34.831Z,86.99
2017-08-11T04:19:02.312Z,87.52
2017-08-11T04:21:29.859Z,87.81
2017-08-11T04:23:57.331Z,87.89
2017-08-11T04:26:24.885Z,87.52
2017-08-11T04:28:52.364Z,87.93
2017-08-11T04:31:19.819Z,87.77
2017-08-11T04:33:47.300Z,87.83
2017-08-11T04:36:14.807Z,87.22
2017-08-11T04:38:42.299Z,87.98
2017-08-11T04:41:09.757Z,88.46
2017-08-11T04:43:37.266Z,87.95
2017-08-11T04:46:04.743Z,87.93
2017-08-11T04:48:32.493Z,88.08
2017-08-11T04:51:00.059Z,88.08
2017-08-11T04:53:27.523Z,87.27
2017-08-11T04:55:55.072Z,86.57
2017-08-11T04:58:22.535Z,87.40
2017-08-11T05:00:50.291Z,87.77
2017-08-11T05:03:17.748Z,87.54
2017-08-11T05:05:45.320Z,87.91
2017-08-11T05:08:12.776Z,87.81
2017-08-11T05:10:40.324Z,87.78
2017-08-11T05:13:07.787Z,87.82
2017-08-11T05:15:35.259Z,88.10
2017-08-11T05:18:02.785Z,88.94
2017-08-11T05:20:30.229Z,88.47
2017-08-11T05:22:57.809Z,87.92
2017-08-11T05:25:25.266Z,88.25
2017-08-11T05:27:52.835Z,88.30
2017-08-11T05:30:20.365Z,88.24
2017-08-11T05:32:47.840Z,88.64
2017-08-11T05:35:15.297Z,88.64
2017-08-11T05:37:42.789Z,88.52
2017-08-11T05:40:10.251Z,88.44
2017-08-11T05:42:37.735Z,89.07
2017-08-11T05:45:05.224Z,88.51
2017-08-11T05:47:32.690Z,88.84
2017-08-11T05:50:00.151Z,89.47
2017-08-11T05:52:27.589Z,89.34
2017-08-11T05:54:55.059Z,88.47
2017-08-11T05:57:22.524Z,87.82
2017-08-11T05:59:50.069Z,87.14
2017-08-11T06:02:17.521Z,86.70
2017-08-11T06:04:44.999Z,86.48
2017-08-11T06:07:12.525Z,86.84
2017-08-11T06:09:40.103Z,86.30
2017-08-11T06:12:07.671Z,86.56
2017-08-11T06:14:35.213Z,86.72
2017-08-11T06:17:02.653Z,86.50
2017-08-11T06:19:30.132Z,84.94
2017-08-11T06:21:57.595Z,84.62
2017-08-11T06:24:25.095Z,83.88
2017-08-11T06:26:52.597Z,84.99
2017-08-11T06:29:20.056Z,85.75
2017-08-11T06:31:47.529Z,84.89
2017-08-11T06:34:15.045Z,85.84
2017-08-11T06:36:42.515Z,85.32
2017-08-11T06:39:10.007Z,85.88
2017-08-11T06:41:37.540Z,83.56
2017-08-11T06:44:05.023Z,84.07
2017-08-11T06:46:32.502Z,85.20
2017-08-11T06:49:00.013Z,84.82
2017-08-11T06:51:27.571Z,84.43
2017-08-11T06:53:55.012Z,83.77
2017-08-11T06:56:22.484Z,84.46
2017-08-11T06:58:49.940Z,84.39
2017-08-11T07:01:17.431Z,84.71
2017-08-11T07:03:44.957Z,85.38
2017-08-11T07:06:12.397Z,85.86
2017-08-11T07:08:39.892Z,86.30
2017-08-11T07:11:07.341Z,86.23
2017-08-11T07:13:34.938Z,86.16
2017-08-11T07:16:02.448Z,87.12
2017-08-11T07:18:30.152Z,86.61
2017-08-11T07:20:57.616Z,86.29
2017-08-11T07:23:25.119Z,87.94
2017-08-11T07:25:52.592Z,87.64
2017-08-11T07:28:20.070Z,86.85
2017-08-11T07:30:47.599Z,86.81
2017-08-11T07:33:15.204Z,86.36
2017-08-11T07:35:42.664Z,86.33
2017-08-11T07:38:10.132Z,86.17
2017-08-11T07:40:37.608Z,84.72
2017-08-11T07:43:05.061Z,84.28
2017-08-11T07:45:32.690Z,82.85
2017-08-11T07:48:00.148Z,83.07
2017-08-11T07:50:27.656Z,83.20
2017-08-11T07:52:55.206Z,83.50
2017-08-11T07:55:22.772Z,82.08
2017-08-11T07:57:50.227Z,82.20
2017-08-11T08:00:17.786Z,82.82
2017-08-11T08:02:45.260Z,82.42
2017-08-11T08:05:12.803Z,82.52
2017-08-11T08:07:40.361Z,81.54
2017-08-11T08:10:07.923Z,82.71
2017-08-11T08:12:35.487Z,81.42
2017-08-11T08:15:02.930Z,79.43
2017-08-11T08:17:30.404Z,78.18
2017-08-11T08:19:57.880Z,79.11
2017-08-11T08:22:25.405Z,79.99
2017-08-11T08:24:52.877Z,78.71
2017-08-11T08:27:20.348Z,77.13
2017-08-11T08:29:47.803Z,76.36
2017-08-11T08:32:15.336Z,76.69
2017-08-11T08:34:42.815Z,76.33
2017-08-11T08:37:10.349Z,77.36
2017-08-11T08:39:37.806Z,76.30
2017-08-11T08:42:05.283Z,76.06
2017-08-11T08:44:32.737Z,76.67
2017-08-11T08:47:00.222Z,76.99
2017-08-11T08:49:27.733Z,77.23
2017-08-11T08:51:55.193Z,79.00
2017-08-11T08:54:22.668Z,76.20
2017-08-11T08:56:50.135Z,77.64
2017-08-11T08:59:17.674Z,78.86
2017-08-11T09:01:45.129Z,78.35
2017-08-11T09:04:12.678Z,77.88
2017-08-11T09:06:40.304Z,78.54
2017-08-11T09:09:07.795Z,78.10
2017-08-11T09:11:35.273Z,78.31
2017-08-11T09:14:02.811Z,79.62
2017-08-11T09:16:30.272Z,78.85
2017-08-11T09:18:57.749Z,79.70
2017-08-11T09:21:25.203Z,78.96
2017-08-11T09:23:52.739Z,79.34
2017-08-11T09:26:32.061Z,80.28
2017-08-11T09:29:11.332Z,79.18
2017-08-11T09:31:50.847Z,78.76
2017-08-11T09:34:30.180Z,79.05
2017-08-11T09:36:57.636Z,79.56
2017-08-11T09:39:25.109Z,79.35
2017-08-11T09:41:52.563Z,79.14
2017-08-11T09:44:20.023Z,79.19
2017-08-11T09:46:47.571Z,78.40
2017-08-11T09:49:15.130Z,78.62
2017-08-11T09:51:42.668Z,78.73
2017-08-11T09:54:10.228Z,78.42
2017-08-11T09:56:37.905Z,78.96
2017-08-11T09:59:05.461Z,77.32
2017-08-11T10:01:32.943Z,78.81
2017-08-11T10:04:00.426Z,77.89
2017-08-11T10:06:27.882Z,76.94
2017-08-11T10:08:55.395Z,77.28
2017-08-11T10:11:22.858Z,77.25
2017-08-11T10:13:50.405Z,77.68
2017-08-11T10:16:17.945Z,77.01
2017-08-11T10:18:45.420Z,77.35
2017-08-11T10:21:12.971Z,78.74
2017-08-11T10:23:40.430Z,77.08
2017-08-11T10:26:07.996Z,77.15
2017-08-11T10:28:35.558Z,77.68
2017-08-11T10:31:03.112Z,77.72
2017-08-11T10:33:30.583Z,77.54
2017-08-11T10:35:58.090Z,78.10
2017-08-11T10:38:25.579Z,77.61
2017-08-11T10:40:53.034Z,77.09
2017-08-11T10:43:20.484Z,76.64
2017-08-11T10:45:48.312Z,78.15
2017-08-11T10:48:15.805Z,77.90
2017-08-11T10:50:43.235Z,77.88
2017-08-11T10:53:10.711Z,76.99
2017-08-11T10:55:38.177Z,77.16
2017-08-11T10:58:05.643Z,77.00
2017-08-11T11:00:33.154Z,77.70
2017-08-11T11:03:00.643Z,77.41
2017-08-11T11:05:28.116Z,78.20
2017-08-11T11:07:55.807Z,78.09
2017-08-11T11:10:23.389Z,78.50
2017-08-11T11:12:50.895Z,78.75
2017-08-11T11:15:18.451Z,79.81
2017-08-11T11:17:45.921Z,79.04
2017-08-11T11:20:13.469Z,78.19
2017-08-11T11:22:40.901Z,77.84
2017-08-11T11:25:08.386Z,78.45
2017-08-11T11:27:35.835Z,78.24
2017-08-11T11:30:03.382Z,77.46
2017-08-11T11:32:30.820Z,76.87
2017-08-11T11:34:58.306Z,77.65
2017-08-11T11:37:25.767Z,79.32
2017-08-11T11:39:53.223Z,78.16
2017-08-11T11:42:20.662Z,77.46
2017-08-11T11:44:48.238Z,78.16
2017-08-11T11:47:15.797Z,77.42
2017-08-11T11:49:43.351Z,77.78
2017-08-11T11:52:10.820Z,77.78
2017-08-11T11:54:38.288Z,77.54
2017-08-11T11:57:05.827Z,77.42
2017-08-11T11:59:33.271Z,77.92
2017-08-11T12:02:00.857Z,78.25
2017-08-11T12:04:28.295Z,77.53
2017-08-11T12:06:55.759Z,78.37
2017-08-11T12:09:23.319Z,76.75
2017-08-11T12:11:50.873Z,77.12
2017-08-11T12:14:19.144Z,76.97
2017-08-11T12:16:46.626Z,78.08
2017-08-11T12:19:14.164Z,77.44
2017-08-11T12:21:41.673Z,77.64
2017-08-11T12:24:09.337Z,77.58
2017-08-11T12:26:36.801Z,77.99
2017-08-11T12:29:04.297Z,77.95
2017-08-11T12:31:31.764Z,77.50
2017-08-11T12:33:59.311Z,78.37
2017-08-11T12:36:26.868Z,77.65
2017-08-11T12:38:54.309Z,78.60
2017-08-11T12:41:21.869Z,77.53
2017-08-11T12:43:49.310Z,77.15
2017-08-11T12:46:16.760Z,77.79
2017-08-11T12:48:44.255Z,76.92
2017-08-11T12:51:11.698Z,76.39
2017-08-11T12:53:39.681Z,76.48
2017-08-11T12:56:07.371Z,75.80
2017-08-11T12:58:34.859Z,75.99
2017-08-11T13:01:02.362Z,76.09
2017-08-11T13:03:29.832Z,76.32
2017-08-11T13:05:58.237Z,75.96
2017-08-11T13:08:25.753Z,77.14
2017-08-11T13:10:53.289Z,76.82
2017-08-11T13:13:20.818Z,77.32
2017-08-11T13:15:48.324Z,78.04
2017-08-11T13:18:16.187Z,76.57
2017-08-11T13:20:43.748Z,76.48
2017-08-11T13:23:11.240Z,75.68
2017-08-11T13:25:38.766Z,75.46
2017-08-11T13:28:06.209Z,75.09
2017-08-11T13:30:33.893Z,76.18
2017-08-11T13:33:01.341Z,75.86
2017-08-11T13:35:28.811Z,74.77
2017-08-11T13:37:56.260Z,75.40
2017-08-11T13:40:23.731Z,74.06
2017-08-11T13:42:52.031Z,75.21
2017-08-11T13:45:19.508Z,75.50
2017-08-11T13:47:47.000Z,74.91
2017-08-11T13:50:14.461Z,74.71
2017-08-11T13:52:41.911Z,73.96
2017-08-11T13:55:09.706Z,74.62
2017-08-11T13:57:37.235Z,74.48
2017-08-11T14:00:04.710Z,75.57
2017-08-11T14:02:32.249Z,73.84
2017-08-11T14:04:59.713Z,73.61
2017-08-11T14:07:27.149Z,74.52
2017-08-11T14:09:54.600Z,74.00
2017-08-11T14:12:22.112Z,74.36
2017-08-11T14:14:50.824Z,73.98
2017-08-11T14:17:18.316Z,73.56
2017-08-11T14:19:45.762Z,73.93
2017-08-11T14:22:13.325Z,73.68
2017-08-11T14:24:46.376Z,74.53
2017-08-11T14:27:13.888Z,75.18
2017-08-11T14:29:41.437Z,75.23
2017-08-11T14:32:08.919Z,74.97
2017-08-11T14:34:36.373Z,76.17
2017-08-11T14:37:03.853Z,76.32
2017-08-11T14:39:31.378Z,77.55
2017-08-11T14:41:58.900Z,77.88
2017-08-11T14:44:26.485Z,78.06
2017-08-11T14:46:53.941Z,78.11
2017-08-11T14:49:21.406Z,77.71
2017-08-11T14:51:48.937Z,78.95
2017-08-11T14:54:16.513Z,78.21
2017-08-11T14:56:43.958Z,80.00
2017-08-11T14:59:11.439Z,77.10
2017-08-11T15:01:38.984Z,78.42
2017-08-11T15:04:06.463Z,78.87
2017-08-11T15:06:33.919Z,79.10
2017-08-11T15:09:01.446Z,79.05
2017-08-11T15:11:28.895Z,78.94
2017-08-11T15:13:56.357Z,81.61
2017-08-11T15:16:23.832Z,84.20
2017-08-11T15:18:51.388Z,85.31
2017-08-11T15:21:18.883Z,84.22
2017-08-11T15:23:46.349Z,83.61
2017-08-11T15:26:13.911Z,83.27
2017-08-11T15:28:41.367Z,84.25
2017-08-11T15:31:08.875Z,85.15
2017-08-11T15:33:36.339Z,85.16
2017-08-11T15:36:03.848Z,81.32
2017-08-11T15:38:31.339Z,80.12
2017-08-11T15:40:58.819Z,80.14
2017-08-11T15:43:26.345Z,84.19
2017-08-11T15:45:53.919Z,81.10
2017-08-11T15:48:21.374Z,81.75
2017-08-11T15:50:48.841Z,83.10
2017-08-11T15:53:16.392Z,82.26
2017-08-11T15:55:43.948Z,81.10
2017-08-11T15:58:11.405Z,84.69
2017-08-11T16:00:39.368Z,85.63
2017-08-11T16:03:06.824Z,84.83
2017-08-11T16:05:34.281Z,85.09
2017-08-11T16:08:01.795Z,86.05
2017-08-11T16:10:29.251Z,86.94
2017-08-11T16:12:57.127Z,85.40
2017-08-11T16:15:24.584Z,85.88
2017-08-11T16:17:52.049Z,86.76
2017-08-11T16:20:19.500Z,86.28
2017-08-11T16:22:46.974Z,84.22
2017-08-11T16:25:14.431Z,84.09
2017-08-11T16:27:41.908Z,82.49
2017-08-11T16:30:09.361Z,82.41
2017-08-11T16:32:36.843Z,83.59
2017-08-11T16:35:04.290Z,84.55
2017-08-11T16:37:31.851Z,83.87
2017-08-11T16:39:59.303Z,83.24
2017-08-11T16:42:26.799Z,85.46
2017-08-11T16:44:54.288Z,84.52
2017-08-11T16:47:21.746Z,82.31
2017-08-11T16:49:49.214Z,81.06
2017-08-11T16:52:16.777Z,82.84
2017-08-11T16:54:44.271Z,84.98
2017-08-11T16:57:11.796Z,84.11
2017-08-11T16:59:39.288Z,85.10
2017-08-11T17:02:06.744Z,85.47
2017-08-11T17:04:34.216Z,85.68
2017-08-11T17:07:01.669Z,85.49
2017-08-11T17:09:29.139Z,85.31
2017-08-11T17:11:56.600Z,83.57
2017-08-11T17:14:24.085Z,84.49
2017-08-11T17:16:51.546Z,85.27
2017-08-11T17:19:19.023Z,86.55
2017-08-11T17:21:46.550Z,85.82
2017-08-11T17:24:14.020Z,85.88
2017-08-11T17:26:41.483Z,86.18
2017-08-11T17:29:08.967Z,85.19
2017-08-11T17:31:36.423Z,85.57
2017-08-11T17:34:03.947Z,86.10
2017-08-11T17:36:31.415Z,86.15
2017-08-11T17:38:58.862Z,86.41
2017-08-11T17:41:26.417Z,84.82
2017-08-11T17:43:53.873Z,84.02
2017-08-11T17:46:21.343Z,82.52
2017-08-11T17:48:48.878Z,82.72
2017-08-11T17:51:16.448Z,83.46
2017-08-11T17:53:43.905Z,84.77
2017-08-11T17:56:11.392Z,84.35
2017-08-11T17:58:38.955Z,84.16
2017-08-11T18:01:06.480Z,84.21
2017-08-11T18:03:33.925Z,84.01
2017-08-11T18:06:01.500Z,84.28
2017-08-11T18:08:29.052Z,85.47
2017-08-11T18:10:56.552Z,84.42
2017-08-11T18:13:24.066Z,84.32
2017-08-11T18:15:51.551Z,85.16
2017-08-11T18:18:19.084Z,85.95
2017-08-11T18:20:46.540Z,85.55
2017-08-11T18:23:14.036Z,86.40
2017-08-11T18:25:41.495Z,85.43
2017-08-11T18:28:08.959Z,85.95
2017-08-11T18:30:36.397Z,87.72
2017-08-11T18:33:03.872Z,87.53
2017-08-11T18:35:31.331Z,87.73
2017-08-11T18:37:58.836Z,87.46
2017-08-11T18:40:26.282Z,87.39
2017-08-11T18:42:53.788Z,88.39
2017-08-11T18:45:21.292Z,88.89
2017-08-11T18:47:48.749Z,88.52
2017-08-11T18:50:16.200Z,89.55
2017-08-11T18:52:43.661Z,89.38
2017-08-11T18:55:11.147Z,89.88
2017-08-11T18:57:38.623Z,89.43
2017-08-11T19:00:06.085Z,89.28
2017-08-11T19:02:33.658Z,89.85
2017-08-11T19:05:01.132Z,89.01
2017-08-11T19:07:28.602Z,89.36
2017-08-11T19:09:56.132Z,88.90
2017-08-11T19:12:23.585Z,89.02
2017-08-11T19:14:51.092Z,89.21
2017-08-11T19:17:18.559Z,88.42
2017-08-11T19:19:46.042Z,88.89
2017-08-11T19:22:13.563Z,89.26
2017-08-11T19:24:41.028Z,89.57
2017-08-11T19:27:08.480Z,89.84
2017-08-11T19:29:36.023Z,90.32
2017-08-11T19:32:03.457Z,89.95
2017-08-11T19:34:30.949Z,89.87
2017-08-11T19:36:58.424Z,89.93
2017-08-11T19:39:25.875Z,90.70
2017-08-11T19:41:53.417Z,90.73
2017-08-11T19:44:20.876Z,90.86
2017-08-11T19:46:48.366Z,91.13
2017-08-11T19:49:15.824Z,90.65
2017-08-11T19:51:43.285Z,91.17
2017-08-11T19:54:10.739Z,90.33
2017-08-11T19:56:38.261Z,89.69
2017-08-11T19:59:05.719Z,89.95
2017-08-11T20:01:33.275Z,90.11
2017-08-11T20:04:00.726Z,90.38
2017-08-11T20:06:28.200Z,90.10
2017-08-11T20:08:55.660Z,89.97
2017-08-11T20:11:23.354Z,89.57
2017-08-11T20:13:50.853Z,90.04
2017-08-11T20:16:18.321Z,90.13
2017-08-11T20:18:45.815Z,90.03
2017-08-11T20:21:13.390Z,90.30
2017-08-11T20:23:40.985Z,90.01
2017-08-11T20:26:08.429Z,90.16
2017-08-11T20:28:35.898Z,88.90
2017-08-11T20:31:03.356Z,89.33
2017-08-11T20:33:30.949Z,88.72
2017-08-11T20:35:58.578Z,89.33
2017-08-11T20:38:26.097Z,89.35
2017-08-11T20:40:53.612Z,89.68
2017-08-11T20:43:21.163Z,89.68
2017-08-11T20:45:48.610Z,89.43
2017-08-11T20:48:16.415Z,88.54
2017-08-11T20:50:43.939Z,89.31
2017-08-11T20:53:11.472Z,89.09
2017-08-11T20:55:38.946Z,89.50
2017-08-11T20:58:06.403Z,88.88
2017-08-11T21:00:34.131Z,89.46
2017-08-11T21:03:01.584Z,88.70
2017-08-11T21:05:29.063Z,88.60
2017-08-11T21:07:56.515Z,88.70
2017-08-11T21:10:23.999Z,89.74
2017-08-11T21:12:51.626Z,88.89
2017-08-11T21:15:19.113Z,89.68
2017-08-11T21:17:46.676Z,90.38
2017-08-11T21:20:14.155Z,90.43
2017-08-11T21:22:41.597Z,89.97
2017-08-11T21:25:09.067Z,90.72
2017-08-11T21:27:36.513Z,90.10
2017-08-11T21:30:03.992Z,90.09
2017-08-11T21:32:31.520Z,90.41
2017-08-11T21:34:59.079Z,90.34
2017-08-11T21:37:26.555Z,90.58
2017-08-11T21:39:54.037Z,90.09
2017-08-11T21:42:21.601Z,90.65
2017-08-11T21:44:49.067Z,90.56
2017-08-11T21:47:16.575Z,90.65
2017-08-11T21:49:44.039Z,90.55
2017-08-11T21:52:11.519Z,89.71
2017-08-11T21:54:38.995Z,88.79
2017-08-11T21:57:06.477Z,90.89
2017-08-11T21:59:33.932Z,91.16
2017-08-11T22:02:01.416Z,91.11
2017-08-11T22:04:28.857Z,92.27
2017-08-11T22:06:56.427Z,93.13
2017-08-11T22:09:23.887Z,93.58
2017-08-11T22:11:51.367Z,92.71
2017-08-11T22:14:18.880Z,92.79
2017-08-11T22:16:46.348Z,92.70
2017-08-11T22:19:13.910Z,92.51
2017-08-11T22:21:41.465Z,92.07
2017-08-11T22:24:08.934Z,92.73
2017-08-11T22:26:36.387Z,91.50
2017-08-11T22:29:04.103Z,92.01
2017-08-11T22:31:31.580Z,91.69
2017-08-11T22:33:59.160Z,91.62
2017-08-11T22:36:26.715Z,91.60
2017-08-11T22:38:54.229Z,90.96
2017-08-11T22:41:22.149Z,90.88
2017-08-11T22:43:49.699Z,89.25
2017-08-11T22:46:17.167Z,90.44
2017-08-11T22:48:44.653Z,90.18
2017-08-11T22:51:12.103Z,90.88
2017-08-11T22:53:39.559Z,90.63
2017-08-11T22:56:07.025Z,92.05
2017-08-11T22:58:34.480Z,92.26
2017-08-11T23:01:01.955Z,92.03
2017-08-11T23:03:29.455Z,91.99
2017-08-11T23:05:57.012Z,92.58
2017-08-11T23:08:24.491Z,92.79
2017-08-11T23:10:52.033Z,92.40
2017-08-11T23:13:19.491Z,91.86
2017-08-11T23:15:46.957Z,92.43
2017-08-11T23:18:14.500Z,92.22
2017-08-11T23:20:41.978Z,91.86
2017-08-11T23:23:09.527Z,91.58
2017-08-11T23:25:37.085Z,92.25
2017-08-11T23:28:04.538Z,91.72
2017-08-11T23:30:32.397Z,92.76
2017-08-11T23:32:59.955Z,92.37
2017-08-11T23:35:27.435Z,92.97
2017-08-11T23:37:54.971Z,93.50
2017-08-11T23:40:22.413Z,92.41
2017-08-11T23:42:49.951Z,91.86
2017-08-11T23:45:17.397Z,92.56
2017-08-11T23:47:44.891Z,92.48
2017-08-11T23:50:12.359Z,92.14
2017-08-11T23:52:39.913Z,91.96
2017-08-11T23:55:07.389Z,91.53
2017-08-11T23:57:34.863Z,92.34
